sensor_id;sensor_type;location;lat;lon;timestamp;P1;durP1;ratioP1;P2;durP2;ratioP2
18166;SDS011;9208;42.688;23.404;2022-08-18T00:02:07;5.80;;;5.40;;
18166;SDS011;9208;42.688;23.404;2022-08-18T00:04:36;6.40;;;5.70;;
18166;SDS011;9208;42.688;23.404;2022-08-18T00:07:03;7.87;;;5.70;;
18166;SDS011;9208;42.688;23.404;2022-08-18T00:09:36;6.60;;;6.00;;
18166;SDS011;9208;42.688;23.404;2022-08-18T00:12:05;7.07;;;6.13;;
18166;SDS011;9208;42.688;23.404;2022-08-18T00:14:37;6.93;;;6.23;;
18166;SDS011;9208;42.688;23.404;2022-08-18T00:17:02;6.57;;;5.90;;
18166;SDS011;9208;42.688;23.404;2022-08-18T00:19:28;7.40;;;6.43;;
18166;SDS011;9208;42.688;23.404;2022-08-18T00:21:53;6.07;;;5.47;;
18166;SDS011;9208;42.688;23.404;2022-08-18T00:24:19;6.50;;;5.90;;
18166;SDS011;9208;42.688;23.404;2022-08-18T00:26:45;8.20;;;5.97;;
18166;SDS011;9208;42.688;23.404;2022-08-18T00:29:10;5.90;;;5.30;;
18166;SDS011;9208;42.688;23.404;2022-08-18T00:31:38;6.57;;;5.57;;
18166;SDS011;9208;42.688;23.404;2022-08-18T00:34:04;6.03;;;5.27;;
18166;SDS011;9208;42.688;23.404;2022-08-18T00:36:31;7.57;;;6.20;;
18166;SDS011;9208;42.688;23.404;2022-08-18T00:38:58;6.50;;;5.90;;
18166;SDS011;9208;42.688;23.404;2022-08-18T00:41:27;7.00;;;5.90;;
18166;SDS011;9208;42.688;23.404;2022-08-18T00:43:54;6.43;;;5.87;;
18166;SDS011;9208;42.688;23.404;2022-08-18T00:46:24;6.50;;;5.90;;
18166;SDS011;9208;42.688;23.404;2022-08-18T00:48:52;6.73;;;5.57;;
18166;SDS011;9208;42.688;23.404;2022-08-18T00:51:36;6.43;;;5.60;;
18166;SDS011;9208;42.688;23.404;2022-08-18T00:56:36;7.60;;;6.60;;
18166;SDS011;9208;42.688;23.404;2022-08-18T00:59:28;7.47;;;6.73;;
18166;SDS011;9208;42.688;23.404;2022-08-18T01:02:04;9.27;;;6.33;;
18166;SDS011;9208;42.688;23.404;2022-08-18T01:07:16;7.57;;;6.43;;
18166;SDS011;9208;42.688;23.404;2022-08-18T01:09:49;7.07;;;6.43;;
18166;SDS011;9208;42.688;23.404;2022-08-18T01:12:16;7.17;;;6.30;;
18166;SDS011;9208;42.688;23.404;2022-08-18T01:14:42;7.53;;;6.67;;
18166;SDS011;9208;42.688;23.404;2022-08-18T01:17:08;6.80;;;6.10;;
18166;SDS011;9208;42.688;23.404;2022-08-18T01:19:55;6.50;;;6.00;;
18166;SDS011;9208;42.688;23.404;2022-08-18T01:25:12;7.93;;;6.33;;
18166;SDS011;9208;42.688;23.404;2022-08-18T01:27:58;6.60;;;5.97;;
18166;SDS011;9208;42.688;23.404;2022-08-18T01:30:27;7.60;;;6.17;;
18166;SDS011;9208;42.688;23.404;2022-08-18T01:32:55;6.80;;;6.20;;
18166;SDS011;9208;42.688;23.404;2022-08-18T01:35:21;6.47;;;5.80;;
18166;SDS011;9208;42.688;23.404;2022-08-18T01:37:49;7.30;;;5.70;;
18166;SDS011;9208;42.688;23.404;2022-08-18T01:40:18;6.43;;;5.80;;
18166;SDS011;9208;42.688;23.404;2022-08-18T01:42:45;6.50;;;5.90;;
18166;SDS011;9208;42.688;23.404;2022-08-18T01:45:14;6.73;;;6.00;;
18166;SDS011;9208;42.688;23.404;2022-08-18T01:47:42;5.70;;;5.20;;
18166;SDS011;9208;42.688;23.404;2022-08-18T01:50:09;8.60;;;5.93;;
18166;SDS011;9208;42.688;23.404;2022-08-18T01:52:37;5.77;;;5.20;;
18166;SDS011;9208;42.688;23.404;2022-08-18T01:55:03;5.40;;;5.00;;
18166;SDS011;9208;42.688;23.404;2022-08-18T01:57:31;8.67;;;5.53;;
18166;SDS011;9208;42.688;23.404;2022-08-18T01:59:57;6.60;;;5.40;;
18166;SDS011;9208;42.688;23.404;2022-08-18T02:02:25;6.63;;;5.40;;
18166;SDS011;9208;42.688;23.404;2022-08-18T02:04:58;7.60;;;6.10;;
18166;SDS011;9208;42.688;23.404;2022-08-18T02:07:27;6.27;;;5.67;;
18166;SDS011;9208;42.688;23.404;2022-08-18T02:09:52;5.80;;;5.30;;
18166;SDS011;9208;42.688;23.404;2022-08-18T02:12:18;5.63;;;5.20;;
18166;SDS011;9208;42.688;23.404;2022-08-18T02:14:44;7.10;;;5.13;;
18166;SDS011;9208;42.688;23.404;2022-08-18T02:17:10;6.27;;;5.73;;
18166;SDS011;9208;42.688;23.404;2022-08-18T02:19:41;6.30;;;5.70;;
18166;SDS011;9208;42.688;23.404;2022-08-18T02:22:09;6.80;;;6.20;;
18166;SDS011;9208;42.688;23.404;2022-08-18T02:24:38;7.00;;;6.40;;
18166;SDS011;9208;42.688;23.404;2022-08-18T02:27:04;7.00;;;6.40;;
18166;SDS011;9208;42.688;23.404;2022-08-18T02:29:31;6.70;;;6.10;;
18166;SDS011;9208;42.688;23.404;2022-08-18T02:31:56;6.67;;;6.07;;
18166;SDS011;9208;42.688;23.404;2022-08-18T02:34:22;7.10;;;6.40;;
18166;SDS011;9208;42.688;23.404;2022-08-18T02:36:50;7.23;;;6.63;;
18166;SDS011;9208;42.688;23.404;2022-08-18T02:39:15;6.53;;;5.93;;
18166;SDS011;9208;42.688;23.404;2022-08-18T02:41:41;8.10;;;6.73;;
18166;SDS011;9208;42.688;23.404;2022-08-18T02:44:07;8.40;;;6.37;;
18166;SDS011;9208;42.688;23.404;2022-08-18T02:46:33;6.70;;;6.00;;
18166;SDS011;9208;42.688;23.404;2022-08-18T02:48:59;7.17;;;6.27;;
18166;SDS011;9208;42.688;23.404;2022-08-18T02:51:25;6.80;;;6.20;;
18166;SDS011;9208;42.688;23.404;2022-08-18T02:53:51;7.37;;;6.80;;
18166;SDS011;9208;42.688;23.404;2022-08-18T02:56:20;6.83;;;6.20;;
18166;SDS011;9208;42.688;23.404;2022-08-18T02:58:52;7.27;;;6.57;;
18166;SDS011;9208;42.688;23.404;2022-08-18T03:01:20;10.37;;;6.40;;
18166;SDS011;9208;42.688;23.404;2022-08-18T03:03:48;7.27;;;6.67;;
18166;SDS011;9208;42.688;23.404;2022-08-18T03:06:17;7.53;;;6.83;;
18166;SDS011;9208;42.688;23.404;2022-08-18T03:08:44;7.33;;;6.73;;
18166;SDS011;9208;42.688;23.404;2022-08-18T03:11:14;7.80;;;7.10;;
18166;SDS011;9208;42.688;23.404;2022-08-18T03:13:41;7.67;;;6.87;;
18166;SDS011;9208;42.688;23.404;2022-08-18T03:16:06;7.33;;;6.47;;
18166;SDS011;9208;42.688;23.404;2022-08-18T03:18:32;7.20;;;6.60;;
18166;SDS011;9208;42.688;23.404;2022-08-18T03:21:03;7.67;;;6.97;;
18166;SDS011;9208;42.688;23.404;2022-08-18T03:23:36;7.70;;;7.03;;
18166;SDS011;9208;42.688;23.404;2022-08-18T03:26:05;7.90;;;7.13;;
18166;SDS011;9208;42.688;23.404;2022-08-18T03:28:35;8.23;;;6.50;;
18166;SDS011;9208;42.688;23.404;2022-08-18T03:31:05;7.17;;;6.47;;
18166;SDS011;9208;42.688;23.404;2022-08-18T03:33:31;7.50;;;6.70;;
18166;SDS011;9208;42.688;23.404;2022-08-18T03:36:10;6.77;;;6.17;;
18166;SDS011;9208;42.688;23.404;2022-08-18T03:38:38;8.23;;;7.13;;
18166;SDS011;9208;42.688;23.404;2022-08-18T03:41:05;6.87;;;6.17;;
18166;SDS011;9208;42.688;23.404;2022-08-18T03:43:32;7.40;;;6.70;;
18166;SDS011;9208;42.688;23.404;2022-08-18T03:46:04;7.57;;;6.27;;
18166;SDS011;9208;42.688;23.404;2022-08-18T03:48:31;7.10;;;6.50;;
18166;SDS011;9208;42.688;23.404;2022-08-18T03:51:04;7.70;;;6.27;;
18166;SDS011;9208;42.688;23.404;2022-08-18T03:53:51;7.10;;;6.50;;
18166;SDS011;9208;42.688;23.404;2022-08-18T03:56:21;7.73;;;6.97;;
18166;SDS011;9208;42.688;23.404;2022-08-18T03:58:53;9.37;;;6.60;;
18166;SDS011;9208;42.688;23.404;2022-08-18T04:01:22;7.93;;;7.13;;
18166;SDS011;9208;42.688;23.404;2022-08-18T04:03:50;8.93;;;7.50;;
18166;SDS011;9208;42.688;23.404;2022-08-18T04:06:22;7.13;;;6.53;;
18166;SDS011;9208;42.688;23.404;2022-08-18T04:08:50;7.37;;;6.67;;
18166;SDS011;9208;42.688;23.404;2022-08-18T04:11:17;7.97;;;7.17;;
18166;SDS011;9208;42.688;23.404;2022-08-18T04:13:43;7.93;;;7.17;;
18166;SDS011;9208;42.688;23.404;2022-08-18T04:16:08;9.13;;;6.93;;
18166;SDS011;9208;42.688;23.404;2022-08-18T04:18:34;8.97;;;6.90;;
18166;SDS011;9208;42.688;23.404;2022-08-18T04:21:04;7.13;;;6.43;;
18166;SDS011;9208;42.688;23.404;2022-08-18T04:23:34;9.73;;;6.47;;
18166;SDS011;9208;42.688;23.404;2022-08-18T04:26:04;7.50;;;6.77;;
18166;SDS011;9208;42.688;23.404;2022-08-18T04:28:31;7.63;;;6.93;;
18166;SDS011;9208;42.688;23.404;2022-08-18T04:30:57;8.67;;;7.17;;
18166;SDS011;9208;42.688;23.404;2022-08-18T04:33:26;7.43;;;6.73;;
18166;SDS011;9208;42.688;23.404;2022-08-18T04:35:53;7.30;;;6.60;;
18166;SDS011;9208;42.688;23.404;2022-08-18T04:38:22;7.13;;;6.43;;
18166;SDS011;9208;42.688;23.404;2022-08-18T04:40:48;12.50;;;7.30;;
18166;SDS011;9208;42.688;23.404;2022-08-18T04:43:15;9.97;;;7.57;;
18166;SDS011;9208;42.688;23.404;2022-08-18T04:45:41;9.10;;;7.50;;
18166;SDS011;9208;42.688;23.404;2022-08-18T04:48:08;10.60;;;8.47;;
18166;SDS011;9208;42.688;23.404;2022-08-18T04:50:35;10.57;;;8.00;;
18166;SDS011;9208;42.688;23.404;2022-08-18T04:53:02;9.80;;;7.70;;
18166;SDS011;9208;42.688;23.404;2022-08-18T04:55:47;8.53;;;7.50;;
18166;SDS011;9208;42.688;23.404;2022-08-18T04:58:15;8.07;;;7.37;;
18166;SDS011;9208;42.688;23.404;2022-08-18T05:00:43;7.43;;;6.70;;
18166;SDS011;9208;42.688;23.404;2022-08-18T05:03:09;7.20;;;6.50;;
18166;SDS011;9208;42.688;23.404;2022-08-18T05:05:36;10.30;;;6.63;;
18166;SDS011;9208;42.688;23.404;2022-08-18T05:08:01;7.80;;;6.90;;
18166;SDS011;9208;42.688;23.404;2022-08-18T05:10:29;7.40;;;6.70;;
18166;SDS011;9208;42.688;23.404;2022-08-18T05:12:55;10.67;;;7.10;;
18166;SDS011;9208;42.688;23.404;2022-08-18T05:15:21;11.57;;;6.93;;
18166;SDS011;9208;42.688;23.404;2022-08-18T05:17:47;9.00;;;6.87;;
18166;SDS011;9208;42.688;23.404;2022-08-18T05:20:13;7.60;;;6.50;;
18166;SDS011;9208;42.688;23.404;2022-08-18T05:22:39;7.57;;;6.77;;
18166;SDS011;9208;42.688;23.404;2022-08-18T05:25:07;7.30;;;6.67;;
18166;SDS011;9208;42.688;23.404;2022-08-18T05:27:35;7.67;;;6.90;;
18166;SDS011;9208;42.688;23.404;2022-08-18T05:30:03;7.80;;;6.83;;
18166;SDS011;9208;42.688;23.404;2022-08-18T05:32:37;7.57;;;6.90;;
18166;SDS011;9208;42.688;23.404;2022-08-18T05:35:05;7.77;;;6.90;;
18166;SDS011;9208;42.688;23.404;2022-08-18T05:37:46;7.90;;;7.17;;
18166;SDS011;9208;42.688;23.404;2022-08-18T05:40:22;7.90;;;7.20;;
18166;SDS011;9208;42.688;23.404;2022-08-18T05:42:49;9.20;;;7.60;;
18166;SDS011;9208;42.688;23.404;2022-08-18T05:45:18;8.07;;;7.33;;
18166;SDS011;9208;42.688;23.404;2022-08-18T05:47:44;9.47;;;6.97;;
18166;SDS011;9208;42.688;23.404;2022-08-18T05:50:11;7.63;;;7.00;;
18166;SDS011;9208;42.688;23.404;2022-08-18T05:52:43;8.43;;;7.43;;
18166;SDS011;9208;42.688;23.404;2022-08-18T05:55:26;8.90;;;8.00;;
18166;SDS011;9208;42.688;23.404;2022-08-18T05:58:18;9.17;;;8.23;;
18166;SDS011;9208;42.688;23.404;2022-08-18T06:01:00;7.97;;;7.17;;
18166;SDS011;9208;42.688;23.404;2022-08-18T06:03:29;8.23;;;7.33;;
18166;SDS011;9208;42.688;23.404;2022-08-18T06:06:05;32.47;;;8.70;;
18166;SDS011;9208;42.688;23.404;2022-08-18T06:08:42;9.13;;;6.87;;
18166;SDS011;9208;42.688;23.404;2022-08-18T06:11:12;14.23;;;7.47;;
18166;SDS011;9208;42.688;23.404;2022-08-18T06:13:39;9.97;;;7.10;;
18166;SDS011;9208;42.688;23.404;2022-08-18T06:18:56;12.17;;;7.57;;
18166;SDS011;9208;42.688;23.404;2022-08-18T06:21:37;8.57;;;6.60;;
18166;SDS011;9208;42.688;23.404;2022-08-18T06:27:22;10.63;;;7.20;;
18166;SDS011;9208;42.688;23.404;2022-08-18T06:30:09;9.77;;;7.53;;
18166;SDS011;9208;42.688;23.404;2022-08-18T06:37:51;9.53;;;7.57;;
18166;SDS011;9208;42.688;23.404;2022-08-18T06:40:41;8.43;;;7.37;;
18166;SDS011;9208;42.688;23.404;2022-08-18T06:43:08;8.37;;;7.57;;
18166;SDS011;9208;42.688;23.404;2022-08-18T06:45:38;9.30;;;7.20;;
18166;SDS011;9208;42.688;23.404;2022-08-18T06:48:11;9.40;;;7.23;;
18166;SDS011;9208;42.688;23.404;2022-08-18T06:53:21;8.20;;;7.43;;
18166;SDS011;9208;42.688;23.404;2022-08-18T07:01:58;8.03;;;7.23;;
18166;SDS011;9208;42.688;23.404;2022-08-18T07:04:39;10.70;;;7.43;;
18166;SDS011;9208;42.688;23.404;2022-08-18T07:07:11;11.17;;;7.77;;
18166;SDS011;9208;42.688;23.404;2022-08-18T07:09:39;7.90;;;6.80;;
18166;SDS011;9208;42.688;23.404;2022-08-18T07:12:05;8.70;;;6.77;;
18166;SDS011;9208;42.688;23.404;2022-08-18T07:14:44;8.43;;;7.03;;
18166;SDS011;9208;42.688;23.404;2022-08-18T07:17:13;10.63;;;6.47;;
18166;SDS011;9208;42.688;23.404;2022-08-18T07:20:22;9.00;;;6.60;;
18166;SDS011;9208;42.688;23.404;2022-08-18T07:23:01;7.90;;;7.17;;
18166;SDS011;9208;42.688;23.404;2022-08-18T07:25:42;6.87;;;6.27;;
18166;SDS011;9208;42.688;23.404;2022-08-18T07:33:54;8.13;;;6.13;;
18166;SDS011;9208;42.688;23.404;2022-08-18T07:36:33;8.70;;;6.20;;
18166;SDS011;9208;42.688;23.404;2022-08-18T07:39:16;7.80;;;6.30;;
18166;SDS011;9208;42.688;23.404;2022-08-18T07:41:49;7.00;;;6.40;;
18166;SDS011;9208;42.688;23.404;2022-08-18T07:50:10;6.90;;;6.20;;
18166;SDS011;9208;42.688;23.404;2022-08-18T07:52:37;6.77;;;6.17;;
18166;SDS011;9208;42.688;23.404;2022-08-18T07:55:28;7.00;;;6.37;;
18166;SDS011;9208;42.688;23.404;2022-08-18T08:00:44;7.57;;;6.00;;
18166;SDS011;9208;42.688;23.404;2022-08-18T08:03:38;8.63;;;6.93;;
18166;SDS011;9208;42.688;23.404;2022-08-18T08:06:31;11.60;;;5.93;;
18166;SDS011;9208;42.688;23.404;2022-08-18T08:30:03;6.30;;;5.70;;
18166;SDS011;9208;42.688;23.404;2022-08-18T08:32:49;6.10;;;5.50;;
18166;SDS011;9208;42.688;23.404;2022-08-18T08:35:35;5.13;;;4.73;;
18166;SDS011;9208;42.688;23.404;2022-08-18T08:38:13;6.17;;;5.47;;
18166;SDS011;9208;42.688;23.404;2022-08-18T08:40:46;9.03;;;5.37;;
18166;SDS011;9208;42.688;23.404;2022-08-18T08:43:35;5.37;;;4.70;;
18166;SDS011;9208;42.688;23.404;2022-08-18T08:46:28;6.27;;;4.83;;
18166;SDS011;9208;42.688;23.404;2022-08-18T08:49:02;7.60;;;5.17;;
18166;SDS011;9208;42.688;23.404;2022-08-18T08:51:49;5.97;;;5.47;;
18166;SDS011;9208;42.688;23.404;2022-08-18T08:54:26;6.23;;;5.53;;
18166;SDS011;9208;42.688;23.404;2022-08-18T08:57:00;4.83;;;4.50;;
18166;SDS011;9208;42.688;23.404;2022-08-18T08:59:28;4.97;;;4.53;;
18166;SDS011;9208;42.688;23.404;2022-08-18T09:12:43;4.60;;;4.30;;
18166;SDS011;9208;42.688;23.404;2022-08-18T09:20:47;4.17;;;3.87;;
18166;SDS011;9208;42.688;23.404;2022-08-18T09:25:52;4.53;;;4.13;;
18166;SDS011;9208;42.688;23.404;2022-08-18T09:31:26;6.00;;;4.80;;
18166;SDS011;9208;42.688;23.404;2022-08-18T09:37:11;9.07;;;4.80;;
18166;SDS011;9208;42.688;23.404;2022-08-18T09:39:43;4.80;;;4.27;;
18166;SDS011;9208;42.688;23.404;2022-08-18T09:42:46;6.03;;;4.57;;
18166;SDS011;9208;42.688;23.404;2022-08-18T09:52:53;5.40;;;4.23;;
18166;SDS011;9208;42.688;23.404;2022-08-18T09:58:11;6.68;;;4.95;;
18166;SDS011;9208;42.688;23.404;2022-08-18T10:00:43;4.60;;;4.20;;
18166;SDS011;9208;42.688;23.404;2022-08-18T10:03:10;4.73;;;4.27;;
18166;SDS011;9208;42.688;23.404;2022-08-18T10:05:54;5.13;;;4.20;;
18166;SDS011;9208;42.688;23.404;2022-08-18T10:08:32;4.43;;;4.07;;
18166;SDS011;9208;42.688;23.404;2022-08-18T10:11:16;7.20;;;4.55;;
18166;SDS011;9208;42.688;23.404;2022-08-18T10:23:03;6.97;;;5.05;;
18166;SDS011;9208;42.688;23.404;2022-08-18T10:28:02;5.65;;;4.85;;
18166;SDS011;9208;42.688;23.404;2022-08-18T10:33:02;4.63;;;4.22;;
18166;SDS011;9208;42.688;23.404;2022-08-18T10:38:43;6.07;;;4.30;;
18166;SDS011;9208;42.688;23.404;2022-08-18T10:41:05;7.15;;;4.50;;
18166;SDS011;9208;42.688;23.404;2022-08-18T10:43:41;4.57;;;4.25;;
18166;SDS011;9208;42.688;23.404;2022-08-18T10:46:17;4.38;;;4.10;;
18166;SDS011;9208;42.688;23.404;2022-08-18T10:49:01;5.03;;;4.53;;
18166;SDS011;9208;42.688;23.404;2022-08-18T10:54:11;4.40;;;4.00;;
18166;SDS011;9208;42.688;23.404;2022-08-18T10:56:48;7.70;;;4.40;;
18166;SDS011;9208;42.688;23.404;2022-08-18T10:59:21;13.70;;;6.00;;
18166;SDS011;9208;42.688;23.404;2022-08-18T11:02:15;4.97;;;4.10;;
18166;SDS011;9208;42.688;23.404;2022-08-18T11:04:50;4.43;;;4.03;;
18166;SDS011;9208;42.688;23.404;2022-08-18T11:07:18;4.20;;;3.80;;
18166;SDS011;9208;42.688;23.404;2022-08-18T11:09:54;4.40;;;4.10;;
18166;SDS011;9208;42.688;23.404;2022-08-18T11:15:21;7.75;;;4.50;;
18166;SDS011;9208;42.688;23.404;2022-08-18T11:20:44;5.63;;;3.65;;
18166;SDS011;9208;42.688;23.404;2022-08-18T11:23:11;7.20;;;4.78;;
18166;SDS011;9208;42.688;23.404;2022-08-18T11:25:40;5.28;;;4.10;;
18166;SDS011;9208;42.688;23.404;2022-08-18T11:28:13;4.35;;;4.03;;
18166;SDS011;9208;42.688;23.404;2022-08-18T11:30:40;4.28;;;3.80;;
18166;SDS011;9208;42.688;23.404;2022-08-18T11:33:12;3.75;;;3.25;;
18166;SDS011;9208;42.688;23.404;2022-08-18T11:35:44;4.00;;;3.60;;
18166;SDS011;9208;42.688;23.404;2022-08-18T11:38:18;3.72;;;3.45;;
18166;SDS011;9208;42.688;23.404;2022-08-18T11:40:51;3.75;;;3.47;;
18166;SDS011;9208;42.688;23.404;2022-08-18T11:43:33;3.90;;;3.60;;
18166;SDS011;9208;42.688;23.404;2022-08-18T11:46:10;5.90;;;3.80;;
18166;SDS011;9208;42.688;23.404;2022-08-18T11:48:49;4.65;;;3.90;;
18166;SDS011;9208;42.688;23.404;2022-08-18T11:51:29;4.78;;;3.60;;
18166;SDS011;9208;42.688;23.404;2022-08-18T11:54:02;4.00;;;3.70;;
18166;SDS011;9208;42.688;23.404;2022-08-18T11:56:36;3.67;;;3.38;;
18166;SDS011;9208;42.688;23.404;2022-08-18T12:01:49;3.95;;;3.60;;
18166;SDS011;9208;42.688;23.404;2022-08-18T12:14:58;4.35;;;3.78;;
18166;SDS011;9208;42.688;23.404;2022-08-18T12:17:26;5.20;;;3.42;;
18166;SDS011;9208;42.688;23.404;2022-08-18T12:19:52;4.53;;;3.38;;
18166;SDS011;9208;42.688;23.404;2022-08-18T12:22:19;3.58;;;3.28;;
18166;SDS011;9208;42.688;23.404;2022-08-18T12:24:47;10.63;;;4.72;;
18166;SDS011;9208;42.688;23.404;2022-08-18T12:27:14;4.15;;;3.67;;
18166;SDS011;9208;42.688;23.404;2022-08-18T12:29:44;4.28;;;3.88;;
18166;SDS011;9208;42.688;23.404;2022-08-18T12:32:09;5.10;;;4.50;;
18166;SDS011;9208;42.688;23.404;2022-08-18T12:34:35;4.05;;;3.72;;
18166;SDS011;9208;42.688;23.404;2022-08-18T12:37:01;5.97;;;4.07;;
18166;SDS011;9208;42.688;23.404;2022-08-18T12:39:28;3.70;;;3.45;;
18166;SDS011;9208;42.688;23.404;2022-08-18T12:41:55;4.20;;;3.90;;
18166;SDS011;9208;42.688;23.404;2022-08-18T12:44:21;4.65;;;4.22;;
18166;SDS011;9208;42.688;23.404;2022-08-18T12:46:47;6.07;;;5.05;;
18166;SDS011;9208;42.688;23.404;2022-08-18T12:49:14;4.65;;;4.18;;
18166;SDS011;9208;42.688;23.404;2022-08-18T12:51:42;4.32;;;3.92;;
18166;SDS011;9208;42.688;23.404;2022-08-18T12:54:07;4.10;;;3.75;;
18166;SDS011;9208;42.688;23.404;2022-08-18T12:56:33;4.05;;;3.75;;
18166;SDS011;9208;42.688;23.404;2022-08-18T12:58:59;7.70;;;4.57;;
18166;SDS011;9208;42.688;23.404;2022-08-18T13:01:28;4.35;;;3.80;;
18166;SDS011;9208;42.688;23.404;2022-08-18T13:03:54;4.10;;;3.70;;
18166;SDS011;9208;42.688;23.404;2022-08-18T13:06:24;4.13;;;3.78;;
18166;SDS011;9208;42.688;23.404;2022-08-18T13:08:50;4.10;;;3.80;;
18166;SDS011;9208;42.688;23.404;2022-08-18T13:11:16;6.75;;;4.40;;
18166;SDS011;9208;42.688;23.404;2022-08-18T13:13:43;6.03;;;4.30;;
18166;SDS011;9208;42.688;23.404;2022-08-18T13:16:09;4.30;;;4.00;;
18166;SDS011;9208;42.688;23.404;2022-08-18T13:18:37;4.20;;;3.80;;
18166;SDS011;9208;42.688;23.404;2022-08-18T13:21:05;4.07;;;3.72;;
18166;SDS011;9208;42.688;23.404;2022-08-18T13:23:32;4.45;;;4.10;;
18166;SDS011;9208;42.688;23.404;2022-08-18T13:25:59;4.10;;;3.80;;
18166;SDS011;9208;42.688;23.404;2022-08-18T13:28:26;6.22;;;4.00;;
18166;SDS011;9208;42.688;23.404;2022-08-18T13:30:52;4.35;;;3.95;;
18166;SDS011;9208;42.688;23.404;2022-08-18T13:33:18;9.02;;;5.00;;
18166;SDS011;9208;42.688;23.404;2022-08-18T13:35:44;4.25;;;3.83;;
18166;SDS011;9208;42.688;23.404;2022-08-18T13:38:11;4.28;;;3.97;;
18166;SDS011;9208;42.688;23.404;2022-08-18T13:40:37;4.13;;;3.83;;
18166;SDS011;9208;42.688;23.404;2022-08-18T13:43:03;6.57;;;4.18;;
18166;SDS011;9208;42.688;23.404;2022-08-18T13:45:29;4.10;;;3.80;;
18166;SDS011;9208;42.688;23.404;2022-08-18T13:47:55;4.03;;;3.72;;
18166;SDS011;9208;42.688;23.404;2022-08-18T13:50:20;4.55;;;3.92;;
18166;SDS011;9208;42.688;23.404;2022-08-18T13:52:47;3.90;;;3.67;;
18166;SDS011;9208;42.688;23.404;2022-08-18T13:55:14;4.30;;;3.90;;
18166;SDS011;9208;42.688;23.404;2022-08-18T13:57:41;5.10;;;4.60;;
18166;SDS011;9208;42.688;23.404;2022-08-18T14:00:18;4.38;;;4.00;;
18166;SDS011;9208;42.688;23.404;2022-08-18T14:02:46;7.78;;;4.55;;
18166;SDS011;9208;42.688;23.404;2022-08-18T14:05:15;3.72;;;3.38;;
18166;SDS011;9208;42.688;23.404;2022-08-18T14:07:41;4.15;;;3.50;;
18166;SDS011;9208;42.688;23.404;2022-08-18T14:10:07;4.15;;;3.75;;
18166;SDS011;9208;42.688;23.404;2022-08-18T14:12:34;4.60;;;4.03;;
18166;SDS011;9208;42.688;23.404;2022-08-18T14:15:02;5.70;;;3.83;;
18166;SDS011;9208;42.688;23.404;2022-08-18T14:17:31;4.45;;;3.45;;
18166;SDS011;9208;42.688;23.404;2022-08-18T14:19:57;4.60;;;4.15;;
18166;SDS011;9208;42.688;23.404;2022-08-18T14:22:42;4.00;;;3.70;;
18166;SDS011;9208;42.688;23.404;2022-08-18T14:25:26;7.35;;;4.00;;
18166;SDS011;9208;42.688;23.404;2022-08-18T14:28:10;3.80;;;3.60;;
18166;SDS011;9208;42.688;23.404;2022-08-18T14:30:36;4.43;;;3.80;;
18166;SDS011;9208;42.688;23.404;2022-08-18T14:33:06;4.53;;;3.92;;
18166;SDS011;9208;42.688;23.404;2022-08-18T14:35:32;4.30;;;4.00;;
18166;SDS011;9208;42.688;23.404;2022-08-18T14:37:59;4.40;;;3.97;;
18166;SDS011;9208;42.688;23.404;2022-08-18T14:40:26;4.28;;;3.88;;
18166;SDS011;9208;42.688;23.404;2022-08-18T14:42:55;3.65;;;3.45;;
18166;SDS011;9208;42.688;23.404;2022-08-18T14:45:22;7.30;;;4.40;;
18166;SDS011;9208;42.688;23.404;2022-08-18T14:47:48;4.22;;;3.80;;
18166;SDS011;9208;42.688;23.404;2022-08-18T14:50:18;4.00;;;3.70;;
18166;SDS011;9208;42.688;23.404;2022-08-18T14:52:45;4.22;;;3.88;;
18166;SDS011;9208;42.688;23.404;2022-08-18T14:55:14;4.10;;;3.80;;
18166;SDS011;9208;42.688;23.404;2022-08-18T14:57:41;4.35;;;3.92;;
18166;SDS011;9208;42.688;23.404;2022-08-18T15:00:08;4.63;;;4.22;;
18166;SDS011;9208;42.688;23.404;2022-08-18T15:02:38;4.40;;;4.10;;
18166;SDS011;9208;42.688;23.404;2022-08-18T15:05:07;8.63;;;4.90;;
18166;SDS011;9208;42.688;23.404;2022-08-18T15:07:34;4.20;;;3.80;;
18166;SDS011;9208;42.688;23.404;2022-08-18T15:10:07;4.65;;;4.25;;
18166;SDS011;9208;42.688;23.404;2022-08-18T15:12:35;4.45;;;4.07;;
18166;SDS011;9208;42.688;23.404;2022-08-18T15:15:02;4.78;;;4.38;;
18166;SDS011;9208;42.688;23.404;2022-08-18T15:17:29;4.30;;;4.00;;
18166;SDS011;9208;42.688;23.404;2022-08-18T15:19:55;4.70;;;4.30;;
18166;SDS011;9208;42.688;23.404;2022-08-18T15:22:21;4.30;;;4.00;;
18166;SDS011;9208;42.688;23.404;2022-08-18T15:25:05;4.53;;;4.22;;
18166;SDS011;9208;42.688;23.404;2022-08-18T15:27:50;4.43;;;4.03;;
18166;SDS011;9208;42.688;23.404;2022-08-18T15:30:16;4.75;;;4.35;;
18166;SDS011;9208;42.688;23.404;2022-08-18T15:32:43;4.80;;;4.30;;
18166;SDS011;9208;42.688;23.404;2022-08-18T15:35:10;5.47;;;4.82;;
18166;SDS011;9208;42.688;23.404;2022-08-18T15:37:41;5.20;;;4.80;;
18166;SDS011;9208;42.688;23.404;2022-08-18T15:40:18;5.10;;;4.70;;
18166;SDS011;9208;42.688;23.404;2022-08-18T15:42:46;4.60;;;4.30;;
18166;SDS011;9208;42.688;23.404;2022-08-18T15:45:17;7.07;;;4.75;;
18166;SDS011;9208;42.688;23.404;2022-08-18T15:47:45;4.25;;;3.95;;
18166;SDS011;9208;42.688;23.404;2022-08-18T15:50:12;4.20;;;4.00;;
18166;SDS011;9208;42.688;23.404;2022-08-18T15:52:46;4.57;;;4.18;;
18166;SDS011;9208;42.688;23.404;2022-08-18T15:55:14;5.30;;;4.80;;
18166;SDS011;9208;42.688;23.404;2022-08-18T15:57:41;4.60;;;4.30;;
18166;SDS011;9208;42.688;23.404;2022-08-18T16:00:07;5.00;;;4.57;;
18166;SDS011;9208;42.688;23.404;2022-08-18T16:02:34;5.03;;;4.57;;
18166;SDS011;9208;42.688;23.404;2022-08-18T16:05:00;5.00;;;4.60;;
18166;SDS011;9208;42.688;23.404;2022-08-18T16:07:27;4.63;;;4.22;;
18166;SDS011;9208;42.688;23.404;2022-08-18T16:09:52;4.80;;;4.30;;
18166;SDS011;9208;42.688;23.404;2022-08-18T16:12:18;5.18;;;4.40;;
18166;SDS011;9208;42.688;23.404;2022-08-18T16:14:46;5.00;;;4.60;;
18166;SDS011;9208;42.688;23.404;2022-08-18T16:17:12;4.70;;;4.40;;
18166;SDS011;9208;42.688;23.404;2022-08-18T16:19:38;4.55;;;4.25;;
18166;SDS011;9208;42.688;23.404;2022-08-18T16:22:03;4.50;;;4.10;;
18166;SDS011;9208;42.688;23.404;2022-08-18T16:24:30;5.57;;;4.47;;
18166;SDS011;9208;42.688;23.404;2022-08-18T16:26:56;4.95;;;4.55;;
18166;SDS011;9208;42.688;23.404;2022-08-18T16:29:21;4.80;;;4.38;;
18166;SDS011;9208;42.688;23.404;2022-08-18T16:31:47;4.75;;;4.45;;
18166;SDS011;9208;42.688;23.404;2022-08-18T16:34:12;4.95;;;4.55;;
18166;SDS011;9208;42.688;23.404;2022-08-18T16:36:38;5.88;;;4.43;;
18166;SDS011;9208;42.688;23.404;2022-08-18T16:39:04;5.97;;;4.22;;
18166;SDS011;9208;42.688;23.404;2022-08-18T16:41:29;4.60;;;4.22;;
18166;SDS011;9208;42.688;23.404;2022-08-18T16:43:55;5.07;;;4.30;;
18166;SDS011;9208;42.688;23.404;2022-08-18T16:46:23;4.70;;;4.40;;
18166;SDS011;9208;42.688;23.404;2022-08-18T16:48:51;4.72;;;4.30;;
18166;SDS011;9208;42.688;23.404;2022-08-18T16:51:18;5.38;;;4.88;;
18166;SDS011;9208;42.688;23.404;2022-08-18T16:53:46;5.60;;;4.25;;
18166;SDS011;9208;42.688;23.404;2022-08-18T16:56:17;4.40;;;4.10;;
18166;SDS011;9208;42.688;23.404;2022-08-18T16:58:44;4.80;;;4.45;;
18166;SDS011;9208;42.688;23.404;2022-08-18T17:01:33;4.43;;;4.13;;
18166;SDS011;9208;42.688;23.404;2022-08-18T17:04:19;5.95;;;4.90;;
18166;SDS011;9208;42.688;23.404;2022-08-18T17:06:47;4.80;;;4.50;;
18166;SDS011;9208;42.688;23.404;2022-08-18T17:09:13;4.40;;;4.10;;
18166;SDS011;9208;42.688;23.404;2022-08-18T17:11:38;4.68;;;3.90;;
18166;SDS011;9208;42.688;23.404;2022-08-18T17:14:04;4.28;;;3.90;;
18166;SDS011;9208;42.688;23.404;2022-08-18T17:16:32;4.97;;;4.07;;
18166;SDS011;9208;42.688;23.404;2022-08-18T17:18:58;5.53;;;4.28;;
18166;SDS011;9208;42.688;23.404;2022-08-18T17:21:28;5.00;;;4.53;;
18166;SDS011;9208;42.688;23.404;2022-08-18T17:23:56;5.03;;;4.43;;
18166;SDS011;9208;42.688;23.404;2022-08-18T17:29:30;3.97;;;3.67;;